Terminal Aerodrome Forecast
Issued by NWS

Home | Current Version | Previous Version | Text Only | Print | Product List | Glossary On
Versions: 1 2 3 4 5 6 7 8 9 10 11 12 13 14 15 16 17 18 19 20
000
FTUS41 KBGM 071140
TAFELM
TAF
KELM 071140Z 0712/0812 VRB03KT P6SM SCT025 BKN040
      TEMPO 0712/0714 OVC025
     FM071400 23008KT P6SM SCT040
     FM080000 24003KT P6SM SCT060
     FM080600 28005KT 4SM -SHRA OVC025
     FM080900 32007KT 3SM -SHRA BR OVC015=

USA.gov is the U.S. government's official web portal to all federal, state and local government web resources and services.